Time;durP1;ratioP1;P1;durP2;ratioP2;P2;SDS_P1;SDS_P2;PMS_P1;PMS_P2;Temp;Humidity;BMP_temperature;BMP_pressure;BME280_temperature;BME280_humidity;BME280_pressure;Samples;Min_cycle;Max_cycle;Signal;HPM_P1;HPM_P2
2023/10/22 00:00:13;;;;;;;10.07;6.90;;;10.40;99.90;;;;;;5061689;28;20182;-56
2023/10/22 00:02:39;;;;;;;7.60;6.20;;;10.40;99.90;;;;;;5064841;28;20441;-55
2023/10/22 00:05:06;;;;;;;10.70;6.60;;;10.40;99.90;;;;;;5064113;28;20167;-57
2023/10/22 00:07:32;;;;;;;9.47;6.60;;;10.30;99.90;;;;;;5063511;28;20421;-55
2023/10/22 00:09:58;;;;;;;10.10;6.90;;;10.30;99.90;;;;;;5059186;28;20449;-56
2023/10/22 00:12:24;;;;;;;8.13;6.73;;;10.30;99.90;;;;;;5060770;28;20426;-57
2023/10/22 00:14:50;;;;;;;8.40;6.40;;;10.20;99.90;;;;;;5050333;28;20417;-56
2023/10/22 00:17:15;;;;;;;7.87;6.07;;;10.20;99.90;;;;;;5064818;28;20187;-55
2023/10/22 00:19:41;;;;;;;7.60;6.80;;;10.20;99.90;;;;;;5063799;28;20198;-54
2023/10/22 00:22:08;;;;;;;13.13;7.47;;;10.20;99.90;;;;;;5042637;28;20655;-57
2023/10/22 00:24:34;;;;;;;10.33;7.40;;;10.20;99.90;;;;;;5065512;28;20198;-56
2023/10/22 00:27:00;;;;;;;9.83;7.10;;;10.20;99.90;;;;;;5063216;28;20827;-56
2023/10/22 00:29:26;;;;;;;12.90;7.27;;;10.20;99.90;;;;;;5062622;28;20186;-54
2023/10/22 00:31:52;;;;;;;10.73;7.33;;;10.20;99.90;;;;;;5067029;28;20178;-57
2023/10/22 00:34:18;;;;;;;13.20;8.33;;;10.30;99.90;;;;;;5066460;28;20420;-55
2023/10/22 00:36:44;;;;;;;12.90;8.67;;;10.30;99.90;;;;;;5064476;28;20183;-57
2023/10/22 00:39:10;;;;;;;9.80;7.50;;;10.30;99.90;;;;;;5062727;28;20190;-56
2023/10/22 00:41:36;;;;;;;12.70;7.20;;;10.30;99.90;;;;;;5065378;28;20435;-56
2023/10/22 00:44:01;;;;;;;11.53;7.27;;;10.30;99.90;;;;;;5064275;28;20261;-55
2023/10/22 00:46:28;;;;;;;10.97;7.67;;;10.30;99.90;;;;;;5039595;28;20205;-56
2023/10/22 00:48:55;;;;;;;12.67;8.20;;;10.40;99.90;;;;;;5062525;28;20201;-56
2023/10/22 00:51:22;;;;;;;11.67;7.90;;;10.40;99.90;;;;;;5066807;28;20808;-58
2023/10/22 00:53:49;;;;;;;12.70;7.90;;;10.40;99.90;;;;;;5061103;28;20836;-54
2023/10/22 00:56:15;;;;;;;10.73;6.90;;;10.40;99.90;;;;;;5064866;28;20535;-57
2023/10/22 00:58:43;;;;;;;13.80;7.97;;;10.40;99.90;;;;;;5063951;28;20464;-57
2023/10/22 01:01:09;;;;;;;12.83;7.80;;;10.40;99.90;;;;;;5058617;28;20167;-57
2023/10/22 01:03:38;;;;;;;11.40;8.27;;;10.40;99.90;;;;;;5064310;28;20443;-57
2023/10/22 01:06:05;;;;;;;11.50;7.90;;;10.40;99.90;;;;;;5064336;28;20464;-56
2023/10/22 01:08:35;;;;;;;11.40;8.03;;;10.40;99.90;;;;;;5047057;28;20571;-54
2023/10/22 01:11:11;;;;;;;11.77;7.60;;;10.40;99.90;;;;;;5064408;28;21210;-55
2023/10/22 01:13:38;;;;;;;11.33;7.83;;;10.40;99.90;;;;;;5060086;28;20428;-58
2023/10/22 01:16:06;;;;;;;11.40;8.00;;;10.40;99.90;;;;;;5067060;28;20478;-56
2023/10/22 01:18:32;;;;;;;12.90;7.97;;;10.40;99.90;;;;;;5060709;28;20440;-55
2023/10/22 01:20:58;;;;;;;15.63;7.90;;;10.30;99.90;;;;;;5058929;28;20472;-57
2023/10/22 01:23:23;;;;;;;11.27;7.80;;;10.30;99.90;;;;;;5062658;28;20224;-57
2023/10/22 01:25:50;;;;;;;9.30;7.30;;;10.30;99.90;;;;;;5060760;28;20240;-57
2023/10/22 01:28:15;;;;;;;10.00;7.33;;;10.30;99.90;;;;;;5062565;28;20190;-56
2023/10/22 01:30:41;;;;;;;8.67;6.50;;;10.30;99.90;;;;;;5063013;28;20497;-57
2023/10/22 01:33:07;;;;;;;11.47;7.37;;;10.20;99.90;;;;;;5047271;28;20185;-58
2023/10/22 01:35:33;;;;;;;9.97;7.40;;;10.20;99.90;;;;;;5062848;28;20175;-56
2023/10/22 01:37:59;;;;;;;11.50;7.67;;;10.10;99.90;;;;;;5047481;28;20205;-57
2023/10/22 01:40:24;;;;;;;10.10;7.47;;;10.00;99.90;;;;;;5055222;28;20428;-57
2023/10/22 01:42:51;;;;;;;10.97;7.57;;;9.90;99.90;;;;;;5056556;28;20472;-59
2023/10/22 01:45:17;;;;;;;9.57;7.07;;;9.90;99.90;;;;;;5060585;28;20175;-56
2023/10/22 01:47:43;;;;;;;12.03;7.83;;;9.80;99.90;;;;;;5064089;28;20465;-57
2023/10/22 01:50:09;;;;;;;9.77;7.13;;;9.70;99.90;;;;;;5068378;28;20336;-59
2023/10/22 01:52:34;;;;;;;16.07;7.30;;;9.70;99.90;;;;;;5061209;28;20171;-57
2023/10/22 01:55:00;;;;;;;9.47;7.27;;;9.60;99.90;;;;;;5063864;28;20883;-57
2023/10/22 01:57:25;;;;;;;13.07;7.90;;;9.50;99.90;;;;;;5056574;28;20182;-58
2023/10/22 01:59:51;;;;;;;10.90;7.23;;;9.50;99.90;;;;;;5061275;28;20186;-56
2023/10/22 02:02:17;;;;;;;11.50;7.50;;;9.40;99.90;;;;;;5064348;28;20219;-56
2023/10/22 02:04:43;;;;;;;13.53;9.70;;;9.40;99.90;;;;;;5061791;28;20263;-56
2023/10/22 02:07:09;;;;;;;13.13;7.33;;;9.40;99.90;;;;;;5061783;28;20628;-57
2023/10/22 02:09:34;;;;;;;10.53;7.17;;;9.30;99.90;;;;;;5065110;28;20830;-57
2023/10/22 02:12:00;;;;;;;10.37;7.20;;;9.40;99.90;;;;;;5058224;28;20689;-58
2023/10/22 02:14:26;;;;;;;13.03;7.93;;;9.40;99.90;;;;;;5061359;28;21698;-57
2023/10/22 02:16:52;;;;;;;10.30;7.43;;;9.30;99.90;;;;;;5065388;28;20443;-56
2023/10/22 02:19:18;;;;;;;10.50;7.50;;;9.40;99.90;;;;;;5060178;28;20197;-57
2023/10/22 02:21:45;;;;;;;12.33;7.87;;;9.30;99.90;;;;;;5044739;28;20174;-56
2023/10/22 02:24:10;;;;;;;10.07;6.90;;;9.30;99.90;;;;;;5055550;28;20444;-57
2023/10/22 02:26:36;;;;;;;10.50;6.30;;;9.40;99.90;;;;;;5044741;28;20521;-55
2023/10/22 02:29:02;;;;;;;13.27;7.40;;;9.40;99.90;;;;;;5061324;28;20264;-56
2023/10/22 02:31:28;;;;;;;8.83;5.97;;;9.40;99.90;;;;;;5062487;28;20205;-56
2023/10/22 02:34:07;;;;;;;11.10;7.50;;;9.30;99.90;;;;;;5060253;28;20251;-57
2023/10/22 02:36:33;;;;;;;15.63;7.97;;;9.30;99.90;;;;;;5062687;28;20166;-57
2023/10/22 02:38:59;;;;;;;9.77;6.80;;;9.30;99.90;;;;;;5062315;28;20431;-58
2023/10/22 02:41:25;;;;;;;14.53;7.30;;;9.20;99.90;;;;;;5062234;28;20186;-58
2023/10/22 02:43:51;;;;;;;11.77;7.33;;;9.20;99.90;;;;;;5062342;28;20513;-59
2023/10/22 02:46:16;;;;;;;10.63;6.97;;;9.20;99.90;;;;;;5064182;28;20456;-57
2023/10/22 02:48:42;;;;;;;12.30;7.93;;;9.10;99.90;;;;;;5064264;28;20660;-58
2023/10/22 02:51:08;;;;;;;13.43;7.60;;;9.10;99.90;;;;;;5043430;28;20170;-58
2023/10/22 02:53:33;;;;;;;10.93;6.90;;;9.10;99.90;;;;;;5053940;28;20198;-58
2023/10/22 02:56:02;;;;;;;10.17;6.60;;;9.00;99.90;;;;;;5063220;28;20174;-58
2023/10/22 02:58:31;;;;;;;8.10;6.40;;;9.00;99.90;;;;;;5058593;28;20316;-59
2023/10/22 03:01:04;;;;;;;9.70;6.40;;;8.90;99.90;;;;;;5061830;28;21008;-58
2023/10/22 03:03:31;;;;;;;9.93;5.57;;;8.90;99.90;;;;;;5058515;28;20820;-56
2023/10/22 03:05:59;;;;;;;8.73;6.10;;;8.80;99.90;;;;;;5063326;28;20513;-58
2023/10/22 03:08:25;;;;;;;10.17;6.30;;;8.80;99.90;;;;;;5066167;28;20456;-58
2023/10/22 03:10:51;;;;;;;6.83;5.20;;;8.80;99.90;;;;;;5058887;28;20496;-57
2023/10/22 03:13:17;;;;;;;7.27;5.60;;;8.70;99.90;;;;;;5049888;28;20547;-57
2023/10/22 03:15:42;;;;;;;11.83;6.53;;;8.70;99.90;;;;;;5061325;28;20207;-58
2023/10/22 03:18:08;;;;;;;12.47;6.93;;;8.70;99.90;;;;;;5059431;28;20563;-57
2023/10/22 03:20:33;;;;;;;9.10;6.00;;;8.70;99.90;;;;;;5054129;28;20513;-57
2023/10/22 03:23:01;;;;;;;10.47;6.53;;;8.70;99.90;;;;;;5062167;28;20171;-57
2023/10/22 03:25:27;;;;;;;12.67;6.20;;;8.70;99.90;;;;;;5039423;28;20579;-58
2023/10/22 03:27:53;;;;;;;12.27;6.33;;;8.70;99.90;;;;;;5063766;28;20409;-57
2023/10/22 03:30:18;;;;;;;12.20;6.83;;;8.70;99.90;;;;;;5061028;28;20479;-57
2023/10/22 03:32:44;;;;;;;10.13;6.23;;;8.70;99.90;;;;;;5062196;28;20175;-58
2023/10/22 03:35:10;;;;;;;7.97;6.23;;;8.60;99.90;;;;;;5064995;28;20171;-57
2023/10/22 03:37:36;;;;;;;10.47;6.50;;;8.60;99.90;;;;;;5061701;28;20527;-58
2023/10/22 03:40:04;;;;;;;8.97;6.40;;;8.60;99.90;;;;;;5060507;28;20448;-56
2023/10/22 03:42:29;;;;;;;9.90;6.60;;;8.60;99.90;;;;;;5063522;28;20657;-54
2023/10/22 03:44:55;;;;;;;11.27;6.30;;;8.60;99.90;;;;;;5067544;28;20417;-60
2023/10/22 03:47:21;;;;;;;13.60;6.80;;;8.60;99.90;;;;;;5056818;28;20222;-57
2023/10/22 03:49:47;;;;;;;8.10;6.23;;;8.60;99.90;;;;;;5064233;28;20274;-56
2023/10/22 03:52:12;;;;;;;9.83;6.40;;;8.60;99.90;;;;;;5065036;28;21006;-57
2023/10/22 03:54:38;;;;;;;6.73;5.17;;;8.60;99.90;;;;;;5060034;28;20186;-58
2023/10/22 03:57:04;;;;;;;8.73;6.13;;;8.50;99.90;;;;;;5067263;28;20170;-58
2023/10/22 03:59:29;;;;;;;10.63;5.63;;;8.50;99.90;;;;;;5063651;28;20256;-58
2023/10/22 04:01:55;;;;;;;10.53;5.33;;;8.50;99.90;;;;;;5061232;28;20213;-57
2023/10/22 04:04:21;;;;;;;7.80;5.90;;;8.50;99.90;;;;;;5063105;28;20175;-58
2023/10/22 04:06:47;;;;;;;12.73;6.13;;;8.40;99.90;;;;;;5065647;28;20201;-57
2023/10/22 04:09:12;;;;;;;8.60;5.57;;;8.40;99.90;;;;;;5060995;28;20448;-56
2023/10/22 04:11:38;;;;;;;12.97;6.70;;;8.40;99.90;;;;;;5062829;28;20710;-58
2023/10/22 04:14:03;;;;;;;7.93;5.60;;;8.40;99.90;;;;;;5065934;28;20219;-57
2023/10/22 04:16:29;;;;;;;8.40;5.53;;;8.40;99.90;;;;;;5064135;28;20181;-58
2023/10/22 04:18:55;;;;;;;7.80;5.50;;;8.40;99.90;;;;;;5061936;28;20198;-57
2023/10/22 04:21:20;;;;;;;8.47;5.10;;;8.40;99.90;;;;;;5063337;28;20266;-58
2023/10/22 04:23:46;;;;;;;9.93;5.80;;;8.50;99.90;;;;;;5067298;28;20672;-57
2023/10/22 04:26:13;;;;;;;7.73;5.57;;;8.50;99.90;;;;;;5066047;28;20700;-57
2023/10/22 04:28:46;;;;;;;7.93;5.50;;;8.50;99.90;;;;;;5070037;28;20213;-57
2023/10/22 04:31:11;;;;;;;6.97;5.00;;;8.40;99.90;;;;;;5062027;28;20444;-58
2023/10/22 04:33:37;;;;;;;13.67;5.43;;;8.40;99.90;;;;;;5063758;28;20553;-58
2023/10/22 04:36:03;;;;;;;8.00;5.30;;;8.30;99.90;;;;;;5066045;28;20171;-57
2023/10/22 04:38:30;;;;;;;6.90;5.43;;;8.30;99.90;;;;;;5062943;28;20210;-57
2023/10/22 04:40:56;;;;;;;5.70;4.87;;;8.20;99.90;;;;;;5060714;28;20413;-58
2023/10/22 04:43:22;;;;;;;5.40;4.63;;;8.20;99.90;;;;;;5067188;28;20413;-57
2023/10/22 04:45:49;;;;;;;6.13;4.17;;;8.10;99.90;;;;;;5044247;28;20463;-56
2023/10/22 04:48:15;;;;;;;4.97;3.47;;;8.00;99.90;;;;;;5065132;28;20205;-57
2023/10/22 04:50:41;;;;;;;7.40;3.33;;;7.90;99.90;;;;;;5063634;28;20451;-56
2023/10/22 04:53:07;;;;;;;8.37;2.90;;;7.90;99.90;;;;;;5066038;28;20440;-57
2023/10/22 04:55:33;;;;;;;3.00;2.57;;;7.80;99.90;;;;;;5054090;28;20190;-57
2023/10/22 04:58:00;;;;;;;6.37;3.70;;;7.80;99.90;;;;;;5064378;28;20182;-58
2023/10/22 05:00:26;;;;;;;4.53;3.67;;;7.70;99.90;;;;;;5055038;28;20501;-58
2023/10/22 05:02:52;;;;;;;5.17;4.00;;;7.70;99.90;;;;;;5060933;28;21245;-59
2023/10/22 05:05:19;;;;;;;8.20;4.30;;;7.70;99.90;;;;;;5065978;28;20182;-57
2023/10/22 05:07:45;;;;;;;4.23;3.40;;;7.70;99.90;;;;;;5065968;28;20167;-58
2023/10/22 05:10:11;;;;;;;8.73;4.10;;;7.70;99.90;;;;;;5064550;28;20485;-58
2023/10/22 05:12:37;;;;;;;6.73;5.07;;;7.70;99.90;;;;;;5059236;28;20551;-57
2023/10/22 05:15:03;;;;;;;5.20;4.03;;;7.70;99.90;;;;;;5059946;28;20428;-55
2023/10/22 05:17:29;;;;;;;6.73;4.30;;;7.70;99.90;;;;;;5056615;28;20179;-57
2023/10/22 05:19:55;;;;;;;8.23;4.73;;;7.60;99.90;;;;;;5056163;28;20444;-58
2023/10/22 05:22:20;;;;;;;6.57;4.90;;;7.60;99.90;;;;;;5060286;28;20946;-59
2023/10/22 05:24:49;;;;;;;5.20;4.33;;;7.60;99.90;;;;;;5066100;28;20183;-56
2023/10/22 05:27:16;;;;;;;5.10;4.40;;;7.60;99.90;;;;;;5065142;28;20236;-58
2023/10/22 05:29:48;;;;;;;7.33;4.20;;;7.60;99.90;;;;;;5065043;28;20424;-56
2023/10/22 05:32:17;;;;;;;4.73;4.23;;;7.60;99.90;;;;;;5060052;28;20486;-56
2023/10/22 05:34:43;;;;;;;5.40;4.17;;;7.60;99.90;;;;;;5062712;28;20413;-57
2023/10/22 05:37:08;;;;;;;6.87;3.77;;;7.50;99.90;;;;;;5066966;28;20424;-56
2023/10/22 05:39:36;;;;;;;6.53;4.40;;;7.50;99.90;;;;;;5089673;22;20599;-62
2023/10/22 05:42:04;;;;;;;7.10;3.90;;;7.50;99.90;;;;;;5071193;28;20169;-61
2023/10/22 05:44:30;;;;;;;5.47;4.20;;;7.40;99.90;;;;;;5064697;28;20427;-59
2023/10/22 05:46:55;;;;;;;5.47;3.73;;;7.40;99.90;;;;;;5065975;28;20475;-59
2023/10/22 05:49:21;;;;;;;10.03;4.90;;;7.30;99.90;;;;;;5064660;28;20187;-59
2023/10/22 05:51:47;;;;;;;30.77;5.80;;;7.30;99.90;;;;;;5065996;28;20178;-58
2023/10/22 05:54:12;;;;;;;12.93;5.20;;;7.20;99.90;;;;;;5062163;28;20266;-60
2023/10/22 05:56:38;;;;;;;6.33;4.10;;;7.20;99.90;;;;;;5068612;28;20193;-59
2023/10/22 05:59:08;;;;;;;7.83;5.20;;;7.20;99.90;;;;;;5054777;28;20210;-59
2023/10/22 06:01:38;;;;;;;19.93;5.17;;;7.20;99.90;;;;;;5064591;28;20171;-59
2023/10/22 06:04:05;;;;;;;6.93;4.57;;;7.20;99.90;;;;;;5056813;28;20469;-59
2023/10/22 06:06:31;;;;;;;4.47;3.60;;;7.20;99.90;;;;;;5066198;28;20522;-59
2023/10/22 06:08:56;;;;;;;6.80;4.10;;;7.20;99.90;;;;;;5060316;28;20445;-59
2023/10/22 06:11:22;;;;;;;7.63;4.60;;;7.20;99.90;;;;;;5064403;28;20274;-60
2023/10/22 06:13:47;;;;;;;8.07;5.23;;;7.20;99.90;;;;;;5059118;28;20171;-58
2023/10/22 06:16:13;;;;;;;6.00;4.30;;;7.20;99.90;;;;;;5060222;28;20179;-60
2023/10/22 06:18:38;;;;;;;7.83;5.23;;;7.20;99.90;;;;;;5060803;28;20293;-60
2023/10/22 06:21:12;;;;;;;5.20;3.97;;;7.10;99.90;;;;;;5061330;28;20178;-60
2023/10/22 06:23:37;;;;;;;22.10;4.00;;;7.10;99.90;;;;;;5064096;28;20304;-59
2023/10/22 06:26:04;;;;;;;47.07;4.57;;;7.00;99.90;;;;;;5060080;28;20995;-58
2023/10/22 06:28:30;;;;;;;46.23;5.03;;;7.00;99.90;;;;;;5064632;28;20212;-60
2023/10/22 06:31:08;;;;;;;25.80;4.63;;;6.90;99.90;;;;;;5065682;28;20435;-59
2023/10/22 06:33:35;;;;;;;28.10;4.63;;;6.80;99.90;;;;;;5065076;28;20249;-59
2023/10/22 06:36:17;;;;;;;155.07;10.20;;;6.80;99.90;;;;;;5064198;28;21021;-60
2023/10/22 06:38:45;;;;;;;225.37;13.23;;;6.80;99.90;;;;;;5061220;28;20455;-60
2023/10/22 06:41:26;;;;;;;123.13;11.37;;;6.80;99.90;;;;;;5065132;28;20481;-59
2023/10/22 06:43:52;;;;;;;101.70;8.57;;;6.80;99.90;;;;;;5064209;28;20421;-59
2023/10/22 06:46:18;;;;;;;16.20;4.90;;;6.80;99.90;;;;;;5062601;28;20464;-59
2023/10/22 06:48:44;;;;;;;68.83;7.70;;;6.80;99.90;;;;;;5063504;28;20448;-59
2023/10/22 06:51:11;;;;;;;61.60;5.73;;;6.80;99.90;;;;;;5060226;28;20209;-59
2023/10/22 06:53:38;;;;;;;21.67;4.23;;;6.80;99.90;;;;;;5064083;28;20178;-59
2023/10/22 06:56:07;;;;;;;32.30;4.90;;;6.80;99.90;;;;;;5059584;28;20436;-59
2023/10/22 06:58:33;;;;;;;43.60;4.90;;;6.90;99.90;;;;;;5057985;28;20881;-58
2023/10/22 07:01:09;;;;;;;28.80;5.10;;;6.90;99.90;;;;;;5058325;28;20433;-59
2023/10/22 07:03:36;;;;;;;44.50;5.27;;;7.00;99.90;;;;;;5058246;28;20454;-60
2023/10/22 07:06:02;;;;;;;31.63;5.27;;;7.00;99.90;;;;;;5064187;28;20453;-60
2023/10/22 07:08:28;;;;;;;93.00;7.90;;;7.00;99.90;;;;;;5063600;28;20460;-61
2023/10/22 07:10:54;;;;;;;32.43;4.87;;;7.10;99.90;;;;;;5062632;28;20984;-60
2023/10/22 07:13:20;;;;;;;12.50;4.73;;;7.10;99.90;;;;;;5062914;28;20432;-60
2023/10/22 07:15:47;;;;;;;19.73;4.20;;;7.10;99.90;;;;;;5062816;28;20783;-60
2023/10/22 07:18:13;;;;;;;19.83;4.90;;;7.10;99.90;;;;;;5057395;28;20175;-60
2023/10/22 07:20:39;;;;;;;31.40;5.60;;;7.10;99.90;;;;;;5055050;28;20432;-59
2023/10/22 07:23:06;;;;;;;15.73;4.73;;;7.20;99.90;;;;;;5067304;28;20509;-59
2023/10/22 07:25:31;;;;;;;32.83;5.87;;;7.20;99.90;;;;;;5067139;28;20183;-59
2023/10/22 07:27:57;;;;;;;21.73;5.20;;;7.20;99.90;;;;;;5065170;28;20444;-60
2023/10/22 07:30:23;;;;;;;38.50;6.70;;;7.20;99.90;;;;;;5069003;28;20213;-61
2023/10/22 07:32:54;;;;;;;17.33;5.20;;;7.20;99.90;;;;;;5064131;28;20246;-59
2023/10/22 07:35:20;;;;;;;24.77;5.20;;;7.20;99.90;;;;;;5067375;28;20439;-59
2023/10/22 07:37:46;;;;;;;6.53;4.57;;;7.30;99.90;;;;;;5067211;28;20470;-60
2023/10/22 07:40:13;;;;;;;19.33;4.50;;;7.30;99.90;;;;;;5069988;28;20883;-60
2023/10/22 07:42:42;;;;;;;4.33;3.93;;;7.40;99.90;;;;;;5062118;28;20814;-60
2023/10/22 07:45:09;;;;;;;38.10;5.00;;;7.40;99.90;;;;;;5061000;28;20794;-60
2023/10/22 07:47:35;;;;;;;6.93;4.60;;;7.50;99.90;;;;;;5061386;28;20547;-61
2023/10/22 07:50:06;;;;;;;17.70;5.10;;;7.50;99.90;;;;;;5065539;28;20452;-60
2023/10/22 07:52:32;;;;;;;7.63;5.50;;;7.50;99.90;;;;;;5063688;28;20489;-60
2023/10/22 07:54:58;;;;;;;13.97;5.77;;;7.60;99.90;;;;;;5062613;28;20437;-60
2023/10/22 07:57:26;;;;;;;8.57;5.80;;;7.60;99.90;;;;;;5067890;28;20430;-60
2023/10/22 07:59:51;;;;;;;7.43;5.53;;;7.70;99.90;;;;;;5064511;28;20437;-60
2023/10/22 08:02:17;;;;;;;7.73;5.20;;;7.80;99.90;;;;;;5067602;28;20969;-60
2023/10/22 08:04:42;;;;;;;11.30;6.00;;;7.90;99.90;;;;;;5064001;28;20183;-61
2023/10/22 08:07:08;;;;;;;8.70;5.20;;;7.90;99.90;;;;;;5063349;28;20214;-60
2023/10/22 08:09:34;;;;;;;7.30;5.60;;;8.00;99.90;;;;;;5067956;28;20225;-60
2023/10/22 08:11:59;;;;;;;7.13;5.37;;;8.00;99.90;;;;;;5066070;28;20307;-60
2023/10/22 08:14:25;;;;;;;7.80;5.70;;;8.10;99.90;;;;;;5065538;28;20518;-60
2023/10/22 08:16:50;;;;;;;8.60;6.00;;;8.20;99.90;;;;;;5066773;28;20182;-60
2023/10/22 08:19:16;;;;;;;9.40;5.50;;;8.20;99.90;;;;;;5067558;28;20260;-60
2023/10/22 08:21:42;;;;;;;7.80;4.97;;;8.20;99.90;;;;;;5064318;28;20614;-61
2023/10/22 08:24:08;;;;;;;8.00;4.70;;;8.30;99.90;;;;;;5064929;28;20520;-59
2023/10/22 08:26:34;;;;;;;6.90;4.97;;;8.40;99.90;;;;;;5063355;28;20718;-59
2023/10/22 08:28:59;;;;;;;9.00;5.87;;;8.50;99.90;;;;;;5060984;28;20229;-61
2023/10/22 08:31:25;;;;;;;13.20;6.97;;;8.60;99.90;;;;;;5053697;28;20175;-62
2023/10/22 08:33:51;;;;;;;11.67;6.43;;;8.70;99.90;;;;;;5068015;28;20175;-60
2023/10/22 08:36:16;;;;;;;7.77;5.10;;;8.80;99.90;;;;;;5063961;28;20174;-59
2023/10/22 08:38:43;;;;;;;7.20;4.70;;;8.90;99.90;;;;;;5065618;28;20271;-60
2023/10/22 08:41:19;;;;;;;11.20;4.90;;;9.00;99.90;;;;;;5065249;28;20861;-60
2023/10/22 08:43:46;;;;;;;8.97;4.23;;;9.20;99.90;;;;;;5069700;28;20420;-61
2023/10/22 08:46:12;;;;;;;5.80;4.43;;;9.40;99.90;;;;;;5066191;28;20463;-59
2023/10/22 08:48:39;;;;;;;8.77;4.80;;;9.50;99.90;;;;;;5064466;28;20852;-60
2023/10/22 08:51:06;;;;;;;7.40;3.90;;;9.70;99.90;;;;;;5065048;28;20174;-60
2023/10/22 08:53:32;;;;;;;4.13;2.40;;;9.80;99.90;;;;;;5060453;28;20436;-61
2023/10/22 08:56:00;;;;;;;3.13;2.77;;;10.00;99.90;;;;;;5058402;28;20421;-60
2023/10/22 08:58:26;;;;;;;3.00;2.20;;;10.20;99.90;;;;;;5058307;28;20214;-60
2023/10/22 09:00:52;;;;;;;8.20;1.90;;;10.50;99.90;;;;;;5066958;28;20464;-60
2023/10/22 09:03:19;;;;;;;4.30;1.90;;;10.70;99.90;;;;;;5065252;28;20277;-59
2023/10/22 09:05:46;;;;;;;2.80;1.40;;;10.90;99.90;;;;;;5066646;28;20190;-60
2023/10/22 09:08:12;;;;;;;1.47;1.20;;;11.00;99.90;;;;;;5064773;28;20436;-60
2023/10/22 09:10:38;;;;;;;1.87;1.20;;;11.20;99.90;;;;;;5059136;28;20428;-60
2023/10/22 09:13:07;;;;;;;3.20;1.33;;;11.30;99.90;;;;;;5067362;28;20431;-60
2023/10/22 09:15:37;;;;;;;1.40;1.30;;;11.50;99.90;;;;;;5067321;28;20460;-59
2023/10/22 09:18:03;;;;;;;1.80;1.20;;;11.50;99.90;;;;;;5066758;28;20409;-60
2023/10/22 09:20:34;;;;;;;2.40;1.17;;;11.50;99.90;;;;;;5061455;28;20551;-59
2023/10/22 09:23:19;;;;;;;3.10;1.30;;;11.60;99.90;;;;;;5062822;28;20420;-60
2023/10/22 09:25:52;;;;;;;1.60;1.47;;;11.70;99.90;;;;;;5063950;28;20929;-59
2023/10/22 09:28:24;;;;;;;2.73;1.27;;;11.70;99.90;;;;;;5063704;28;20433;-60
2023/10/22 09:31:17;;;;;;;5.33;1.70;;;11.80;99.90;;;;;;5066442;28;20428;-60
2023/10/22 09:33:42;;;;;;;8.30;2.10;;;12.00;99.90;;;;;;5062086;28;20421;-60
2023/10/22 09:36:12;;;;;;;3.00;1.40;;;12.00;99.90;;;;;;5059309;28;20432;-60
2023/10/22 09:38:51;;;;;;;2.63;1.47;;;12.10;99.90;;;;;;5061393;28;20306;-61
2023/10/22 09:41:23;;;;;;;5.83;1.23;;;12.20;98.90;;;;;;5061822;28;20429;-59
2023/10/22 09:43:49;;;;;;;1.97;1.50;;;12.30;99.90;;;;;;5064018;28;20481;-60
2023/10/22 09:46:15;;;;;;;2.10;1.20;;;12.30;98.40;;;;;;5065274;28;20658;-60
2023/10/22 09:48:43;;;;;;;2.27;1.33;;;12.20;97.50;;;;;;5060700;28;20860;-61
2023/10/22 09:51:13;;;;;;;2.13;1.03;;;12.20;98.50;;;;;;5059249;28;20194;-60
2023/10/22 09:53:41;;;;;;;5.97;1.70;;;12.20;98.10;;;;;;5060033;28;20519;-60
2023/10/22 09:56:09;;;;;;;2.90;1.73;;;12.20;95.80;;;;;;5064555;28;21572;-60
2023/10/22 09:58:42;;;;;;;2.47;1.50;;;12.30;99.40;;;;;;5065821;28;20991;-61
2023/10/22 10:01:09;;;;;;;2.10;1.30;;;12.50;98.40;;;;;;5066216;28;20431;-61
2023/10/22 10:03:36;;;;;;;2.60;1.10;;;12.60;96.40;;;;;;5060771;28;20506;-60
2023/10/22 10:06:05;;;;;;;3.00;1.07;;;12.60;96.30;;;;;;5058477;28;20534;-60
2023/10/22 10:08:33;;;;;;;1.73;1.10;;;12.60;89.90;;;;;;5061786;28;20517;-59
2023/10/22 10:10:59;;;;;;;2.20;1.40;;;12.60;93.20;;;;;;5059518;28;20440;-60
2023/10/22 10:13:25;;;;;;;2.10;1.20;;;12.70;91.80;;;;;;5067813;28;20439;-60
2023/10/22 10:16:08;;;;;;;1.23;0.90;;;12.70;91.10;;;;;;5063297;28;20967;-60
2023/10/22 10:18:58;;;;;;;4.60;1.80;;;12.70;92.10;;;;;;5063198;28;20801;-58
2023/10/22 10:21:39;;;;;;;3.10;1.23;;;12.70;82.00;;;;;;5063119;28;20419;-60
2023/10/22 10:24:24;;;;;;;1.40;0.87;;;12.70;81.30;;;;;;5059714;28;20429;-60
2023/10/22 10:26:57;;;;;;;4.60;1.20;;;12.60;77.70;;;;;;5062698;28;20463;-61
2023/10/22 10:29:27;;;;;;;1.50;1.23;;;12.50;74.80;;;;;;5063841;28;20467;-60
2023/10/22 10:31:55;;;;;;;2.67;1.70;;;12.50;77.90;;;;;;5065115;28;20417;-60
2023/10/22 10:34:39;;;;;;;9.90;3.80;;;12.40;78.60;;;;;;5065114;28;20424;-60
2023/10/22 10:37:09;;;;;;;5.57;1.90;;;12.30;82.30;;;;;;5065319;28;20540;-60
2023/10/22 10:39:47;;;;;;;4.73;1.63;;;12.30;85.70;;;;;;5061134;28;20475;-58
2023/10/22 10:42:14;;;;;;;6.63;2.43;;;12.30;81.20;;;;;;5062327;28;20432;-61
2023/10/22 10:44:58;;;;;;;3.73;1.50;;;12.20;81.30;;;;;;5066260;28;20428;-60
2023/10/22 10:47:33;;;;;;;2.67;1.17;;;12.20;84.50;;;;;;5062804;28;20539;-60
2023/10/22 10:50:06;;;;;;;3.43;1.20;;;12.20;83.40;;;;;;5061861;28;20439;-60
2023/10/22 10:52:56;;;;;;;2.87;1.13;;;12.20;80.90;;;;;;5059678;28;20424;-59
2023/10/22 10:55:21;;;;;;;2.77;1.33;;;12.20;84.00;;;;;;5061830;28;20515;-60
2023/10/22 10:57:49;;;;;;;2.20;1.07;;;12.30;87.30;;;;;;5066070;28;20583;-61
2023/10/22 11:00:19;;;;;;;3.07;1.40;;;12.30;83.80;;;;;;5060771;28;20205;-60
2023/10/22 11:02:47;;;;;;;4.20;1.10;;;12.30;83.70;;;;;;5068348;28;20428;-60
2023/10/22 11:05:14;;;;;;;5.60;1.73;;;12.30;85.10;;;;;;5062327;28;20463;-60
2023/10/22 11:07:42;;;;;;;5.40;1.50;;;12.40;90.40;;;;;;5069012;28;20471;-61
2023/10/22 11:10:11;;;;;;;6.33;1.40;;;12.60;90.10;;;;;;5064507;28;20455;-60
2023/10/22 11:12:38;;;;;;;2.80;1.33;;;12.90;85.30;;;;;;5069692;28;20428;-60
2023/10/22 11:15:05;;;;;;;3.00;1.30;;;13.00;80.10;;;;;;5070594;28;20490;-60
2023/10/22 11:17:31;;;;;;;6.70;1.40;;;13.10;78.00;;;;;;5070445;28;20431;-59
2023/10/22 11:19:57;;;;;;;5.17;1.70;;;13.20;72.60;;;;;;5065346;28;20509;-60
2023/10/22 11:22:23;;;;;;;3.13;1.40;;;13.40;70.90;;;;;;5064994;28;20300;-60
2023/10/22 11:24:51;;;;;;;4.27;1.20;;;13.50;71.10;;;;;;5067775;28;20549;-59
2023/10/22 11:27:18;;;;;;;2.77;1.30;;;13.70;67.00;;;;;;5070005;28;20649;-59
2023/10/22 11:29:49;;;;;;;3.73;1.10;;;13.60;68.10;;;;;;5062840;28;20449;-60
2023/10/22 11:32:17;;;;;;;1.47;1.20;;;13.60;67.10;;;;;;5069111;28;20923;-60
2023/10/22 11:35:02;;;;;;;2.53;1.43;;;13.60;65.80;;;;;;5064687;28;20489;-61
2023/10/22 11:37:30;;;;;;;3.13;1.23;;;13.80;66.70;;;;;;5067036;28;20425;-60
2023/10/22 11:39:56;;;;;;;1.60;1.40;;;14.10;65.80;;;;;;5061620;28;20463;-60
2023/10/22 11:42:31;;;;;;;1.73;1.20;;;14.40;64.70;;;;;;5068004;28;20413;-60
2023/10/22 11:44:56;;;;;;;2.60;1.17;;;15.00;61.10;;;;;;5067264;28;20412;-62
2023/10/22 11:47:26;;;;;;;1.20;1.10;;;15.50;59.30;;;;;;5065089;28;20463;-60
2023/10/22 11:49:52;;;;;;;1.73;1.03;;;15.50;58.10;;;;;;5067345;28;20243;-60
2023/10/22 11:52:38;;;;;;;7.13;1.67;;;15.30;58.60;;;;;;5063201;28;20437;-60
2023/10/22 11:55:12;;;;;;;1.77;1.40;;;15.20;59.20;;;;;;5061215;28;20426;-61
2023/10/22 11:57:39;;;;;;;5.03;1.33;;;14.90;58.80;;;;;;5068332;28;20496;-60
2023/10/22 12:00:06;;;;;;;2.47;1.40;;;14.60;59.90;;;;;;5062531;28;20456;-60
2023/10/22 12:02:32;;;;;;;7.60;1.43;;;14.30;60.90;;;;;;5069762;28;20424;-59
2023/10/22 12:04:57;;;;;;;4.80;1.70;;;14.50;63.00;;;;;;5064560;28;20870;-61
2023/10/22 12:07:23;;;;;;;8.37;1.30;;;15.30;62.50;;;;;;5066561;28;20695;-61
2023/10/22 12:09:49;;;;;;;2.10;1.50;;;15.50;57.50;;;;;;5058016;28;20286;-59
2023/10/22 12:12:15;;;;;;;5.60;1.70;;;15.50;56.70;;;;;;5065751;28;20495;-60
2023/10/22 12:14:42;;;;;;;4.20;1.57;;;15.40;57.10;;;;;;5066355;28;20178;-60
2023/10/22 12:17:08;;;;;;;5.23;1.43;;;15.50;58.20;;;;;;5068712;28;20470;-61
2023/10/22 12:19:34;;;;;;;3.30;1.20;;;16.10;58.30;;;;;;5065836;28;20452;-61
2023/10/22 12:21:59;;;;;;;1.87;1.27;;;16.60;56.90;;;;;;5064345;28;20499;-61
2023/10/22 12:24:25;;;;;;;2.70;1.30;;;17.00;54.60;;;;;;5063900;28;20917;-59
2023/10/22 12:26:51;;;;;;;3.60;1.20;;;17.20;51.80;;;;;;5065103;28;20632;-61
2023/10/22 12:29:17;;;;;;;2.30;1.20;;;17.80;51.40;;;;;;5063417;28;20448;-61
2023/10/22 12:31:42;;;;;;;4.23;1.50;;;18.00;48.90;;;;;;5062794;28;20178;-61
2023/10/22 12:34:08;;;;;;;4.30;1.60;;;17.70;49.70;;;;;;5060902;28;20248;-61
2023/10/22 12:36:34;;;;;;;2.60;1.60;;;17.40;49.70;;;;;;5068226;28;20177;-60
2023/10/22 12:39:00;;;;;;;5.53;1.20;;;16.90;50.10;;;;;;5059759;28;20206;-61
2023/10/22 12:41:26;;;;;;;3.43;2.37;;;16.90;50.80;;;;;;5064635;28;20174;-60
2023/10/22 12:43:52;;;;;;;4.97;1.57;;;17.50;51.80;;;;;;5067621;28;20479;-61
2023/10/22 12:46:18;;;;;;;3.43;1.53;;;18.40;50.60;;;;;;5059666;28;20528;-60
2023/10/22 12:48:44;;;;;;;5.80;1.30;;;18.90;47.70;;;;;;5064327;28;20294;-61